Nearby METAR Reports


NZWN - Wellington Intl, New Zealand
Distance from station: SSW 357km
Updated: 23/02/2018 03:00
Clear
Clear
 Wind from NNE
Wind: NNE 13 km/h
Temperature: 12°C
Dew Point: 10°C
Humidity: 88%
Barometer: 1012 hPa
Clouds: Clear
Visibility: 10 km
2018/02/22 14:00 NZWN 221400Z AUTO 03007KT 9999 NCD 12/10 Q1012 NOSIG
NZAA - Auckland Intl Ar, New Zealand
Distance from station: NW 162km
Updated: 23/02/2018 03:00
Few Clouds
Few Clouds
 Wind from WNW
Wind: WNW 6 km/h
Temperature: 17°C
Dew Point: 15°C
Humidity: 88%
Barometer: 1009 hPa
Clouds: Few Clouds
Visibility: 10 km
Cloud details: Few Clouds 762 m
2018/02/22 14:00 NZAA 221400Z AUTO 29003KT 9999 FEW025/// 17/15 Q1009 NOSIG
 
NZCH - Christchurch Int, New Zealand
Distance from station: SSW 647km
Updated: 23/02/2018 03:00
Clear
Clear
 Wind from NE
Wind: NE 9 km/h
Temperature: 9°C
Wind Chill: 7°C
Dew Point: 8°C
Humidity: 94%
Barometer: 1010 hPa
Clouds: Clear
Visibility: 10 km
2018/02/22 14:00 NZCH 221400Z AUTO 04005KT 9999 NCD 09/08 Q1010 NOSIG
YSNF - Norfolk Island A, Australia
Distance from station: NW 1258km
Updated: 23/02/2018 03:00
Overcast
Overcast
 Wind from S
Wind: S 13 km/h
Clouds: Overcast
Visibility: 10 km
Cloud details: Overcast 1615 m
2018/02/22 14:00 YSNF 221400Z AUTO 17007KT 9999 // OVC053 21/// Q1015